Time;durP1;ratioP1;P1;durP2;ratioP2;P2;SDS_P1;SDS_P2;PMS_P1;PMS_P2;Temp;Humidity;BMP_temperature;BMP_pressure;BME280_temperature;BME280_humidity;BME280_pressure;Samples;Min_cycle;Max_cycle;Signal;HPM_P1;HPM_P2
2023/08/02 00:02:18;;;;;;;;;;;;;;;15.90;84.84;99607.41;107173;1253;124338;-88
2023/08/02 00:04:52;;;;;;;;;;;;;;;15.89;84.94;99607.61;107384;1254;67150;-87
2023/08/02 00:07:26;;;;;;;;;;;;;;;15.88;85.11;99607.80;107272;1256;72443;-89
2023/08/02 00:09:59;;;;;;;;;;;;;;;15.86;85.04;99607.48;107379;1254;59067;-86
2023/08/02 00:16:07;;;;;;;;;;;;;;;15.84;85.16;99613.89;107500;1254;124188;-86
2023/08/02 00:25:19;;;;;;;;;;;;;;;15.78;85.29;99616.63;107306;1254;60679;-87
2023/08/02 00:27:59;;;;;;;;;;;;;;;15.76;85.20;99618.79;107358;1254;60419;-88
2023/08/02 00:43:24;;;;;;;;;;;;;;;15.62;85.36;99626.01;107385;1254;60434;-87
2023/08/02 00:46:14;;;;;;;;;;;;;;;15.61;85.38;99626.20;107144;1254;73726;-88
2023/08/02 00:49:06;;;;;;;;;;;;;;;15.59;85.47;99628.89;107209;1254;65793;-87
2023/08/02 00:51:35;;;;;;;;;;;;;;;15.56;85.28;99632.45;107505;1254;124476;-87
2023/08/02 01:04:46;;;;;;;;;;;;;;;15.43;85.22;99629.98;107552;1253;65631;-87
2023/08/02 01:07:32;;;;;;;;;;;;;;;15.39;85.17;99629.67;107295;1259;73222;-87
2023/08/02 01:10:11;;;;;;;;;;;;;;;15.35;85.18;99626.02;107287;1254;60425;-89
2023/08/02 01:12:42;;;;;;;;;;;;;;;15.32;85.24;99626.40;107704;1253;60289;-86
2023/08/02 01:15:09;;;;;;;;;;;;;;;15.29;85.19;99629.09;107245;1253;124457;-86
2023/08/02 01:17:50;;;;;;;;;;;;;;;15.27;85.29;99633.17;107737;1254;67097;-87
2023/08/02 01:20:21;;;;;;;;;;;;;;;15.24;85.33;99637.80;107365;1254;124219;-86
2023/08/02 01:22:56;;;;;;;;;;;;;;;15.22;85.44;99643.67;107305;1254;60662;-87
2023/08/02 01:25:23;;;;;;;;;;;;;;;15.20;85.43;99642.44;107469;1254;60428;-87
2023/08/02 01:28:16;;;;;;;;;;;;;;;15.17;85.52;99644.08;107069;1254;124391;-86
2023/08/02 01:30:51;;;;;;;;;;;;;;;15.17;85.54;99647.08;107198;1259;66348;-85
2023/08/02 01:33:33;;;;;;;;;;;;;;;15.15;85.51;99651.33;107132;1254;124323;-87
2023/08/02 01:36:10;;;;;;;;;;;;;;;15.12;85.60;99653.30;107327;1254;60458;-86
2023/08/02 01:38:37;;;;;;;;;;;;;;;15.09;85.63;99653.17;107165;1255;124419;-86
2023/08/02 01:41:07;;;;;;;;;;;;;;;15.09;85.74;99649.98;107186;1257;73718;-87
2023/08/02 01:43:39;;;;;;;;;;;;;;;15.07;85.79;99651.42;107246;1254;124504;-87
2023/08/02 01:49:54;;;;;;;;;;;;;;;15.05;85.90;99657.10;107373;1254;124389;-88
2023/08/02 01:59:26;;;;;;;;;;;;;;;14.96;85.80;99659.14;107238;1258;66854;-87
2023/08/02 02:02:00;;;;;;;;;;;;;;;14.97;85.82;99670.26;107114;1253;124408;-87
2023/08/02 02:04:36;;;;;;;;;;;;;;;14.97;85.94;99673.79;107159;1254;60443;-86
2023/08/02 02:07:27;;;;;;;;;;;;;;;14.96;85.90;99680.69;107353;1254;60386;-86
2023/08/02 02:09:54;;;;;;;;;;;;;;;14.93;85.81;99684.77;107443;1254;124107;-85
2023/08/02 02:12:21;;;;;;;;;;;;;;;14.94;85.96;99687.26;107247;1254;67107;-87
2023/08/02 02:17:43;;;;;;;;;;;;;;;15.11;86.65;99690.96;107451;1257;60552;-85
2023/08/02 02:20:44;;;;;;;;;;;;;;;15.19;86.72;99682.59;107278;1253;123349;-87
2023/08/02 02:26:14;;;;;;;;;;;;;;;15.35;86.74;99687.17;107513;1254;124631;-87
2023/08/02 02:32:05;;;;;;;;;;;;;;;15.55;87.00;99690.47;107399;1254;124586;-88
2023/08/02 02:34:48;;;;;;;;;;;;;;;15.64;86.91;99691.94;107256;1254;60564;-87
2023/08/02 02:37:24;;;;;;;;;;;;;;;15.73;86.94;99695.02;107399;1253;73811;-88
2023/08/02 02:40:04;;;;;;;;;;;;;;;15.80;86.87;99691.61;107313;1253;124365;-88
2023/08/02 02:42:40;;;;;;;;;;;;;;;15.84;86.64;99689.95;107492;1254;71354;-86
2023/08/02 02:48:19;;;;;;;;;;;;;;;15.91;86.38;99694.45;107440;1257;60284;-86
2023/08/02 02:54:13;;;;;;;;;;;;;;;15.98;86.18;99700.02;107314;1258;66854;-87
2023/08/02 02:56:46;;;;;;;;;;;;;;;15.99;86.19;99701.07;107206;1256;124605;-86
2023/08/02 02:59:13;;;;;;;;;;;;;;;16.01;86.20;99702.45;107308;1255;60533;-87
2023/08/02 03:04:47;;;;;;;;;;;;;;;16.07;86.19;99705.38;107653;1254;73839;-88
2023/08/02 03:07:21;;;;;;;;;;;;;;;16.11;86.18;99701.98;107720;1254;67008;-88
2023/08/02 03:10:10;;;;;;;;;;;;;;;16.13;86.04;99695.37;107793;1254;124192;-87
2023/08/02 03:12:39;;;;;;;;;;;;;;;16.16;85.99;99695.16;108069;1254;60351;-87
2023/08/02 03:15:08;;;;;;;;;;;;;;;16.14;85.86;99693.76;107142;1253;124484;-86
2023/08/02 03:17:36;;;;;;;;;;;;;;;16.16;85.93;99697.81;107350;1257;71885;-86
2023/08/02 03:20:35;;;;;;;;;;;;;;;16.20;86.11;99706.44;107440;1253;125216;-87
2023/08/02 03:23:20;;;;;;;;;;;;;;;16.23;86.10;99707.96;107934;1254;72566;-86
2023/08/02 03:25:54;;;;;;;;;;;;;;;16.28;86.13;99708.27;107676;1254;124695;-86
2023/08/02 03:28:46;;;;;;;;;;;;;;;16.31;86.03;99705.55;107469;1254;60412;-87
2023/08/02 03:31:23;;;;;;;;;;;;;;;16.34;86.06;99702.33;107012;1263;73037;-87
2023/08/02 03:40:26;;;;;;;;;;;;;;;16.45;85.98;99706.23;106913;1263;60437;-87
2023/08/02 03:46:04;;;;;;;;;;;;;;;16.55;85.82;99706.60;106767;1261;74448;-87
2023/08/02 03:48:50;;;;;;;;;;;;;;;16.59;85.73;99703.71;107223;1263;65873;-88
2023/08/02 03:51:36;;;;;;;;;;;;;;;16.62;85.51;99700.82;106695;1263;124728;-87
2023/08/02 03:54:18;;;;;;;;;;;;;;;16.59;85.06;99698.91;106643;1262;60333;-87
2023/08/02 03:56:51;;;;;;;;;;;;;;;16.52;84.73;99700.98;106623;1261;124487;-87
2023/08/02 04:06:11;;;;;;;;;;;;;;;19.35;92.11;99697.15;107234;1262;73348;-87
2023/08/02 04:12:17;;;;;;;;;;;;;;;22.24;82.14;99690.38;107446;1254;61984;-87
2023/08/02 04:15:01;;;;;;;;;;;;;;;21.86;78.53;99685.42;107273;1254;124753;-87
2023/08/02 04:17:39;;;;;;;;;;;;;;;21.31;77.29;99688.50;107287;1259;65753;-86
2023/08/02 04:27:05;;;;;;;;;;;;;;;19.98;76.61;99688.81;107520;1254;123668;-86
2023/08/02 04:33:16;;;;;;;;;;;;;;;19.64;78.07;99698.87;107489;1253;123738;-86
2023/08/02 04:49:39;;;;;;;;;;;;;;;28.17;69.61;99688.15;107332;1253;60306;-87
2023/08/02 04:52:30;;;;;;;;;;;;;;;28.08;66.82;99692.92;107532;1254;62775;-88
2023/08/02 04:55:05;;;;;;;;;;;;;;;27.84;65.92;99697.16;107428;1259;60565;-86
2023/08/02 05:00:28;;;;;;;;;;;;;;;26.19;63.52;99701.27;107479;1254;63982;-88
2023/08/02 05:03:07;;;;;;;;;;;;;;;25.20;63.79;99700.34;107195;1254;123836;-87
2023/08/02 05:05:36;;;;;;;;;;;;;;;24.62;64.38;99700.61;107342;1254;71189;-86
2023/08/02 05:08:10;;;;;;;;;;;;;;;24.15;64.63;99704.84;107417;1254;122823;-86
2023/08/02 05:10:51;;;;;;;;;;;;;;;23.76;64.84;99705.04;107711;1254;58460;-87
2023/08/02 05:13:25;;;;;;;;;;;;;;;23.47;65.83;99707.08;107488;1254;73689;-86
2023/08/02 05:16:10;;;;;;;;;;;;;;;23.51;65.32;99705.63;107373;1254;123921;-85
2023/08/02 05:18:44;;;;;;;;;;;;;;;23.24;65.65;99706.27;107515;1254;71832;-86
2023/08/02 05:27:28;;;;;;;;;;;;;;;23.24;66.15;99706.80;107559;1254;123895;-88
2023/08/02 05:33:42;;;;;;;;;;;;;;;22.55;65.60;99707.75;107358;1258;123794;-87
2023/08/02 05:42:52;;;;;;;;;;;;;;;22.40;66.14;99716.38;107519;1255;73470;-88
2023/08/02 05:55:40;;;;;;;;;;;;;;;22.55;65.28;99719.73;107323;1254;59354;-88
2023/08/02 05:58:26;;;;;;;;;;;;;;;22.31;65.28;99719.41;107037;1262;124043;-89
2023/08/02 06:07:14;;;;;;;;;;;;;;;22.12;65.17;99725.52;107544;1254;60365;-88
2023/08/02 06:12:53;;;;;;;;;;;;;;;22.07;66.01;99711.42;107634;1259;72639;-88
2023/08/02 06:15:28;;;;;;;;;;;;;;;22.14;65.90;99708.80;107332;1259;123990;-88
2023/08/02 06:18:17;;;;;;;;;;;;;;;22.10;65.65;99711.64;107335;1255;71241;-89
2023/08/02 06:24:21;;;;;;;;;;;;;;;21.71;65.72;99721.36;107394;1257;60537;-88
2023/08/02 06:33:58;;;;;;;;;;;;;;;22.15;65.41;99729.86;107809;1253;123766;-93
2023/08/02 06:36:35;;;;;;;;;;;;;;;22.19;65.06;99729.50;107448;1256;60453;-87
2023/08/02 06:48:55;;;;;;;;;;;;;;;22.09;64.12;99725.62;107568;1258;72765;-87
2023/08/02 06:51:29;;;;;;;;;;;;;;;22.07;64.19;99726.27;107286;1257;123823;-86
2023/08/02 06:54:02;;;;;;;;;;;;;;;22.13;64.32;99725.62;107560;1254;60569;-87
2023/08/02 06:56:29;;;;;;;;;;;;;;;22.24;64.24;99723.77;107331;1254;124133;-86
2023/08/02 06:58:56;;;;;;;;;;;;;;;22.41;64.48;99726.21;107443;1254;66055;-88
2023/08/02 07:01:56;;;;;;;;;;;;;;;22.57;64.43;99724.64;107491;1254;72586;-87
2023/08/02 07:49:56;;;;;;;;;;;;;;;23.20;60.74;99753.19;107478;1258;67706;-87
2023/08/02 07:52:32;;;;;;;;;;;;;;;23.09;60.77;99750.42;107321;1254;71450;-87
2023/08/02 08:01:57;;;;;;;;;;;;;;;23.04;60.51;99769.21;107457;1254;75274;-88
2023/08/02 08:04:32;;;;;;;;;;;;;;;23.18;60.72;99770.64;107499;1255;65709;-88
2023/08/02 08:13:57;;;;;;;;;;;;;;;23.28;59.74;99769.30;107481;1254;61544;-88
2023/08/02 08:16:32;;;;;;;;;;;;;;;23.38;59.37;99769.59;107353;1254;75118;-88
2023/08/02 08:19:16;;;;;;;;;;;;;;;23.48;59.40;99773.61;107501;1259;67148;-88
2023/08/02 08:28:55;;;;;;;;;;;;;;;23.54;58.35;99789.67;107629;1254;62472;-88
2023/08/02 08:31:59;;;;;;;;;;;;;;;23.52;58.34;99785.80;107411;1260;73885;-89
2023/08/02 08:38:02;;;;;;;;;;;;;;;23.59;58.52;99789.80;107508;1258;72608;-88
2023/08/02 08:44:01;;;;;;;;;;;;;;;23.61;58.02;99788.98;107637;1259;60492;-88
2023/08/02 08:49:40;;;;;;;;;;;;;;;23.65;57.33;99787.92;107583;1254;66059;-87
2023/08/02 08:52:16;;;;;;;;;;;;;;;23.57;57.01;99793.66;107402;1260;122798;-89
2023/08/02 08:54:58;;;;;;;;;;;;;;;23.55;56.90;99796.61;107292;1254;60383;-89
2023/08/02 08:57:34;;;;;;;;;;;;;;;23.46;56.72;99792.69;107356;1254;124014;-89
2023/08/02 09:00:11;;;;;;;;;;;;;;;23.48;56.98;99793.31;107340;1254;73697;-86
2023/08/02 09:09:37;;;;;;;;;;;;;;;23.94;56.37;99792.39;107529;1254;122940;-85
2023/08/02 09:16:07;;;;;;;;;;;;;;;23.96;55.83;99788.73;107487;1255;123689;-87
2023/08/02 09:22:15;;;;;;;;;;;;;;;24.27;55.78;99772.38;107592;1254;123740;-88
2023/08/02 09:25:07;;;;;;;;;;;;;;;24.49;56.10;99769.92;107682;1259;60620;-89
2023/08/02 09:27:37;;;;;;;;;;;;;;;24.57;55.87;99764.91;107652;1254;123956;-89
2023/08/02 09:30:07;;;;;;;;;;;;;;;24.51;55.56;99770.20;107598;1253;73937;-89
2023/08/02 09:32:54;;;;;;;;;;;;;;;24.39;55.55;99766.97;107632;1254;123878;-92
2023/08/02 09:35:21;;;;;;;;;;;;;;;24.31;55.25;99764.33;107514;1257;72687;-87
2023/08/02 09:37:59;;;;;;;;;;;;;;;24.26;55.41;99767.60;107395;1268;59232;-88
2023/08/02 09:41:02;;;;;;;;;;;;;;;24.14;55.34;99765.83;107790;1254;122401;-88
2023/08/02 09:43:57;;;;;;;;;;;;;;;23.99;55.24;99762.94;107192;1260;72627;-87
2023/08/02 09:46:36;;;;;;;;;;;;;;;23.85;55.40;99764.11;106863;1267;124521;-88
2023/08/02 09:52:39;;;;;;;;;;;;;;;23.65;55.68;99762.33;106549;1268;122554;-88
2023/08/02 09:55:08;;;;;;;;;;;;;;;23.69;56.02;99757.46;106866;1268;60375;-88
2023/08/02 09:57:42;;;;;;;;;;;;;;;23.86;56.01;99762.84;106628;1271;123807;-88
2023/08/02 10:00:11;;;;;;;;;;;;;;;24.09;56.03;99762.10;106767;1267;65768;-88
2023/08/02 10:02:46;;;;;;;;;;;;;;;24.25;55.49;99763.18;106583;1272;124473;-88
2023/08/02 10:05:33;;;;;;;;;;;;;;;24.47;55.33;99752.09;106786;1266;58846;-88
2023/08/02 10:08:02;;;;;;;;;;;;;;;24.57;54.46;99755.77;106984;1266;60718;-87
2023/08/02 10:10:44;;;;;;;;;;;;;;;24.57;53.88;99753.05;106332;1267;123631;-87
2023/08/02 10:13:22;;;;;;;;;;;;;;;24.41;53.46;99753.63;106275;1267;67878;-87
2023/08/02 10:15:50;;;;;;;;;;;;;;;24.27;53.64;99750.54;106327;1272;124552;-87
2023/08/02 10:18:33;;;;;;;;;;;;;;;24.33;53.82;99759.55;106620;1267;60504;-87
2023/08/02 10:24:37;;;;;;;;;;;;;;;24.52;53.66;99757.95;106819;1261;72544;-87
2023/08/02 10:27:23;;;;;;;;;;;;;;;24.33;53.46;99766.38;107087;1257;123803;-88
2023/08/02 10:29:57;;;;;;;;;;;;;;;24.15;53.48;99771.33;107016;1254;72860;-88
2023/08/02 10:32:39;;;;;;;;;;;;;;;24.05;53.37;99773.41;107024;1256;124195;-88
2023/08/02 10:35:08;;;;;;;;;;;;;;;24.22;53.87;99773.52;107246;1257;60332;-89
2023/08/02 10:38:02;;;;;;;;;;;;;;;24.51;53.67;99774.13;107056;1254;72567;-89
2023/08/02 10:40:58;;;;;;;;;;;;;;;24.63;52.62;99769.27;107212;1254;124217;-87
2023/08/02 10:43:33;;;;;;;;;;;;;;;24.75;52.84;99769.92;107463;1254;74248;-88
2023/08/02 10:49:27;;;;;;;;;;;;;;;25.04;52.77;99764.21;107226;1254;60464;-88
2023/08/02 11:02:27;;;;;;;;;;;;;;;24.52;52.50;99773.75;107427;1254;63194;-90
2023/08/02 11:08:46;;;;;;;;;;;;;;;24.47;52.12;99774.11;107736;1253;124059;-89
2023/08/02 11:21:41;;;;;;;;;;;;;;;23.96;51.83;99769.73;107710;1257;124042;-91
2023/08/02 11:24:30;;;;;;;;;;;;;;;23.86;51.97;99769.95;107565;1254;65856;-89
2023/08/02 11:27:07;;;;;;;;;;;;;;;23.80;52.28;99771.86;107477;1257;123877;-87
2023/08/02 11:29:53;;;;;;;;;;;;;;;23.82;52.41;99775.35;107608;1254;60488;-88
2023/08/02 11:32:27;;;;;;;;;;;;;;;23.78;52.29;99767.46;107305;1254;124155;-88
2023/08/02 11:35:05;;;;;;;;;;;;;;;23.76;52.47;99770.41;107495;1254;73814;-87
2023/08/02 11:44:23;;;;;;;;;;;;;;;23.84;52.64;99760.41;107401;1254;60492;-87
2023/08/02 12:14:39;;;;;;;;;;;;;;;24.54;50.72;99740.13;107655;1254;71700;-88
2023/08/02 13:02:47;;;;;;;;;;;;;;;24.52;49.44;99719.95;107476;1253;65548;-88
2023/08/02 13:05:28;;;;;;;;;;;;;;;24.51;49.39;99724.10;107306;1262;72652;-88
2023/08/02 13:08:08;;;;;;;;;;;;;;;24.48;49.20;99721.70;107418;1254;60443;-89
2023/08/02 13:13:46;;;;;;;;;;;;;;;24.91;49.68;99708.30;107654;1254;73955;-89
2023/08/02 13:26:19;;;;;;;;;;;;;;;25.89;48.92;99703.86;107974;1253;60025;-89
2023/08/02 13:35:25;;;;;;;;;;;;;;;25.47;47.44;99691.78;107493;1256;123767;-88
2023/08/02 13:38:30;;;;;;;;;;;;;;;25.32;47.56;99696.32;107746;1253;60292;-90
2023/08/02 13:41:28;;;;;;;;;;;;;;;25.22;47.49;99697.38;107295;1254;123677;-92
2023/08/02 13:44:18;;;;;;;;;;;;;;;25.11;47.39;99694.91;107559;1253;72349;-91
2023/08/02 13:47:09;;;;;;;;;;;;;;;25.13;47.45;99693.00;107257;1254;124184;-91
2023/08/02 13:50:00;;;;;;;;;;;;;;;25.11;47.89;99687.87;107480;1254;72721;-87
2023/08/02 13:53:02;;;;;;;;;;;;;;;25.08;47.83;99690.42;107291;1254;124212;-90
2023/08/02 13:56:11;;;;;;;;;;;;;;;24.98;47.94;99688.77;107787;1254;60881;-89
2023/08/02 13:58:46;;;;;;;;;;;;;;;24.91;47.97;99687.15;107540;1254;123682;-86
2023/08/02 14:01:50;;;;;;;;;;;;;;;24.83;48.16;99682.31;107683;1254;65174;-87
2023/08/02 14:04:28;;;;;;;;;;;;;;;24.82;48.04;99684.16;107622;1254;123878;-89
2023/08/02 14:07:25;;;;;;;;;;;;;;;24.75;47.88;99689.55;107736;1254;60447;-89
2023/08/02 14:27:07;;;;;;;;;;;;;;;24.71;47.86;99701.27;107607;1254;59956;-88
2023/08/02 14:33:25;;;;;;;;;;;;;;;24.66;48.24;99700.61;107530;1254;123992;-89
2023/08/02 14:36:00;;;;;;;;;;;;;;;24.69;48.31;99699.92;107342;1259;72799;-89
2023/08/02 14:38:39;;;;;;;;;;;;;;;24.67;47.97;99695.53;107385;1254;60455;-89
2023/08/02 14:41:25;;;;;;;;;;;;;;;24.61;48.17;99694.35;107291;1254;123473;-86
2023/08/02 14:47:30;;;;;;;;;;;;;;;;;;;;;
2023/08/02 14:50:17;;;;;;;;;;;;;;;24.86;47.88;99688.48;107765;1254;74042;-87
2023/08/02 14:53:00;;;;;;;;;;;;;;;25.00;47.56;99689.02;107215;1256;123776;-88
2023/08/02 14:55:36;;;;;;;;;;;;;;;25.22;47.66;99685.17;107075;1254;60460;-88
2023/08/02 14:58:16;;;;;;;;;;;;;;;25.37;47.38;99679.02;107128;1254;124322;-89
2023/08/02 15:04:41;;;;;;;;;;;;;;;25.31;46.83;99678.59;107564;1254;124479;-90
2023/08/02 15:10:25;;;;;;;;;;;;;;;24.58;46.70;99673.02;107546;1254;123776;-89
2023/08/02 15:13:27;;;;;;;;;;;;;;;24.32;46.69;99677.34;107431;1254;72252;-89
2023/08/02 15:16:12;;;;;;;;;;;;;;;24.04;47.14;99678.65;107274;1254;124317;-88
2023/08/02 15:18:40;;;;;;;;;;;;;;;23.89;47.28;99679.75;107370;1256;72483;-87
2023/08/02 15:21:24;;;;;;;;;;;;;;;23.82;47.62;99681.10;107258;1254;60429;-89
2023/08/02 15:23:52;;;;;;;;;;;;;;;23.83;47.73;99675.17;107360;1262;60352;-86
2023/08/02 15:26:20;;;;;;;;;;;;;;;23.84;47.85;99673.15;107229;1255;74887;-86
2023/08/02 15:28:48;;;;;;;;;;;;;;;23.89;48.01;99677.75;107602;1253;123975;-87
2023/08/02 15:34:18;;;;;;;;;;;;;;;24.21;48.15;99669.06;107592;1254;124122;-87
2023/08/02 15:36:54;;;;;;;;;;;;;;;24.28;47.94;99663.89;107622;1254;60556;-88
2023/08/02 15:39:29;;;;;;;;;;;;;;;24.30;47.86;99663.45;107544;1254;72462;-87
2023/08/02 15:42:04;;;;;;;;;;;;;;;24.32;47.89;99669.06;107566;1254;65890;-87
2023/08/02 15:44:34;;;;;;;;;;;;;;;24.35;48.02;99663.03;107541;1254;72456;-87
2023/08/02 15:47:02;;;;;;;;;;;;;;;24.36;47.99;99663.30;107413;1254;124500;-87
2023/08/02 15:49:33;;;;;;;;;;;;;;;24.45;48.10;99664.48;107492;1256;60325;-89
2023/08/02 15:52:09;;;;;;;;;;;;;;;24.53;48.17;99655.66;107611;1254;122987;-87
2023/08/02 15:54:36;;;;;;;;;;;;;;;24.58;47.98;99646.63;107464;1254;66088;-87
2023/08/02 15:57:12;;;;;;;;;;;;;;;24.58;48.10;99647.36;107695;1254;71116;-86
2023/08/02 15:59:54;;;;;;;;;;;;;;;24.53;48.21;99654.05;107424;1254;123906;-87
2023/08/02 16:02:36;;;;;;;;;;;;;;;24.53;48.29;99648.85;107578;1253;59907;-86
2023/08/02 16:05:04;;;;;;;;;;;;;;;24.60;48.44;99650.85;107500;1254;123915;-86
2023/08/02 16:07:39;;;;;;;;;;;;;;;24.64;48.42;99651.20;107873;1257;66819;-87
2023/08/02 16:10:15;;;;;;;;;;;;;;;24.61;48.36;99654.00;107661;1253;123960;-86
2023/08/02 16:12:59;;;;;;;;;;;;;;;24.51;48.29;99660.82;107590;1259;60354;-85
2023/08/02 16:15:26;;;;;;;;;;;;;;;24.32;48.30;99656.87;107614;1253;60348;-85
2023/08/02 16:17:53;;;;;;;;;;;;;;;24.17;48.33;99657.80;107600;1253;123809;-88
2023/08/02 16:20:20;;;;;;;;;;;;;;;24.01;48.51;99656.58;107770;1254;65637;-88
2023/08/02 16:22:55;;;;;;;;;;;;;;;23.88;48.65;99654.70;107652;1254;123748;-88
2023/08/02 16:25:33;;;;;;;;;;;;;;;23.73;48.75;99660.40;108087;1253;59228;-87
2023/08/02 16:28:01;;;;;;;;;;;;;;;23.60;48.91;99658.85;107690;1254;123989;-87
2023/08/02 16:30:29;;;;;;;;;;;;;;;23.49;49.17;99657.36;107627;1254;72370;-89
2023/08/02 16:33:02;;;;;;;;;;;;;;;23.40;49.29;99656.17;107831;1253;65602;-87
2023/08/02 16:35:44;;;;;;;;;;;;;;;;;;;;;
2023/08/02 16:38:17;;;;;;;;;;;;;;;23.18;49.55;99660.92;108002;1257;60520;-87
2023/08/02 16:40:53;;;;;;;;;;;;;;;23.13;49.68;99656.31;108117;1254;123888;-85
2023/08/02 16:43:22;;;;;;;;;;;;;;;23.10;49.81;99649.98;107977;1255;73938;-86
2023/08/02 16:45:57;;;;;;;;;;;;;;;23.07;49.96;99647.08;107990;1253;124102;-86
2023/08/02 16:48:24;;;;;;;;;;;;;;;23.01;49.90;99644.08;107860;1254;72831;-87
2023/08/02 16:51:02;;;;;;;;;;;;;;;22.95;50.15;99650.27;108187;1257;58591;-87
2023/08/02 16:53:35;;;;;;;;;;;;;;;22.86;50.26;99647.79;107986;1254;122923;-87
2023/08/02 16:56:03;;;;;;;;;;;;;;;22.78;50.54;99647.23;107869;1254;73590;-86
2023/08/02 16:58:32;;;;;;;;;;;;;;;22.74;50.71;99648.84;107600;1253;124003;-86
2023/08/02 17:01:08;;;;;;;;;;;;;;;22.72;50.96;99648.02;107557;1254;72706;-86
2023/08/02 17:03:42;;;;;;;;;;;;;;;22.71;51.09;99645.75;107621;1254;59254;-84
2023/08/02 17:06:09;;;;;;;;;;;;;;;22.69;51.30;99645.08;107539;1254;60479;-86
2023/08/02 17:08:52;;;;;;;;;;;;;;;22.67;51.30;99643.23;107497;1254;72517;-86
2023/08/02 17:11:46;;;;;;;;;;;;;;;22.61;51.35;99645.45;107520;1253;123800;-90
2023/08/02 17:14:30;;;;;;;;;;;;;;;22.52;51.30;99639.91;107686;1253;72726;-86
2023/08/02 17:17:03;;;;;;;;;;;;;;;22.45;51.53;99635.75;107837;1254;123751;-88
2023/08/02 17:19:49;;;;;;;;;;;;;;;22.38;51.51;99638.35;107542;1255;60365;-86
2023/08/02 17:22:17;;;;;;;;;;;;;;;22.32;51.60;99642.20;107235;1253;124159;-86
2023/08/02 17:24:49;;;;;;;;;;;;;;;22.28;51.79;99641.64;107732;1253;66137;-87
2023/08/02 17:27:16;;;;;;;;;;;;;;;22.26;51.96;99635.83;107955;1253;72685;-87
2023/08/02 17:29:58;;;;;;;;;;;;;;;22.23;52.05;99630.72;107509;1254;124430;-89
2023/08/02 17:32:53;;;;;;;;;;;;;;;22.18;52.06;99630.36;107366;1254;60463;-87
2023/08/02 17:35:29;;;;;;;;;;;;;;;22.13;52.38;99634.16;107392;1254;123989;-87
2023/08/02 17:38:04;;;;;;;;;;;;;;;22.05;52.43;99635.02;107819;1254;67443;-86
2023/08/02 17:40:44;;;;;;;;;;;;;;;21.96;52.54;99632.01;107428;1254;124167;-86
2023/08/02 17:43:22;;;;;;;;;;;;;;;21.88;52.80;99625.69;107381;1254;60441;-86
2023/08/02 17:45:58;;;;;;;;;;;;;;;21.83;52.93;99617.86;107533;1253;124201;-86
2023/08/02 17:48:33;;;;;;;;;;;;;;;21.78;53.05;99615.39;107510;1254;71781;-87
2023/08/02 17:51:11;;;;;;;;;;;;;;;21.70;53.17;99620.15;107646;1253;66851;-88
2023/08/02 17:53:44;;;;;;;;;;;;;;;21.62;53.40;99624.02;107572;1254;123986;-86
2023/08/02 17:56:20;;;;;;;;;;;;;;;21.55;53.64;99622.67;107513;1254;60479;-85
2023/08/02 17:58:47;;;;;;;;;;;;;;;21.49;53.84;99623.97;107415;1253;123957;-85
2023/08/02 18:01:26;;;;;;;;;;;;;;;21.41;53.91;99620.86;107333;1254;73568;-85
2023/08/02 18:04:00;;;;;;;;;;;;;;;21.33;53.97;99614.57;107363;1254;123932;-86
2023/08/02 18:06:31;;;;;;;;;;;;;;;21.23;54.31;99609.20;107601;1253;73549;-85
2023/08/02 18:09:00;;;;;;;;;;;;;;;21.17;54.56;99613.20;107541;1254;59110;-86
2023/08/02 18:11:27;;;;;;;;;;;;;;;21.10;54.69;99616.67;107429;1254;123865;-85
2023/08/02 18:14:16;;;;;;;;;;;;;;;21.02;54.87;99616.07;107675;1253;73879;-84
2023/08/02 18:16:46;;;;;;;;;;;;;;;20.91;55.13;99616.98;107698;1253;122614;-85
2023/08/02 18:19:19;;;;;;;;;;;;;;;20.80;55.23;99619.67;107553;1253;72754;-84
2023/08/02 18:21:50;;;;;;;;;;;;;;;20.69;55.41;99620.79;107583;1254;123927;-85
2023/08/02 18:24:20;;;;;;;;;;;;;;;20.57;55.66;99611.54;107728;1254;59994;-86
2023/08/02 18:26:48;;;;;;;;;;;;;;;20.46;55.92;99610.86;107795;1253;72285;-85
2023/08/02 18:29:17;;;;;;;;;;;;;;;20.34;56.12;99608.75;107660;1253;123790;-87
2023/08/02 18:31:45;;;;;;;;;;;;;;;20.23;56.37;99603.77;107695;1254;71216;-85
2023/08/02 18:34:12;;;;;;;;;;;;;;;20.13;56.69;99610.88;107485;1253;123899;-85
2023/08/02 18:36:39;;;;;;;;;;;;;;;20.01;56.90;99622.82;107566;1253;60421;-85
2023/08/02 18:39:13;;;;;;;;;;;;;;;19.90;57.17;99627.08;107861;1253;73502;-89
2023/08/02 18:41:56;;;;;;;;;;;;;;;19.81;57.43;99622.58;107470;1254;123848;-88
2023/08/02 18:44:36;;;;;;;;;;;;;;;19.70;57.69;99607.20;107665;1254;72672;-87
2023/08/02 18:50:24;;;;;;;;;;;;;;;19.48;58.20;99598.10;107715;1253;60325;-89
2023/08/02 18:53:21;;;;;;;;;;;;;;;19.38;58.47;99596.77;107775;1254;124214;-88
2023/08/02 18:56:08;;;;;;;;;;;;;;;19.32;58.78;99588.23;107657;1254;65587;-89
2023/08/02 19:04:37;;;;;;;;;;;;;;;19.27;59.49;99586.61;107598;1253;124217;-86
2023/08/02 19:07:07;;;;;;;;;;;;;;;19.25;59.70;99586.29;107667;1254;73992;-87
2023/08/02 19:09:35;;;;;;;;;;;;;;;19.27;59.87;99571.48;107662;1253;67100;-87
2023/08/02 19:12:15;;;;;;;;;;;;;;;19.26;59.99;99551.41;107823;1254;71402;-85
2023/08/02 19:18:17;;;;;;;;;;;;;;;19.25;60.33;99561.76;108008;1254;61417;-89
2023/08/02 19:27:53;;;;;;;;;;;;;;;19.20;60.66;99547.50;107865;1254;73183;-87
2023/08/02 19:30:25;;;;;;;;;;;;;;;19.16;60.76;99558.80;107693;1254;60763;-88
2023/08/02 19:32:53;;;;;;;;;;;;;;;19.12;61.00;99552.16;107635;1254;58606;-87
2023/08/02 19:35:23;;;;;;;;;;;;;;;19.09;61.10;99537.17;107493;1254;123769;-88
2023/08/02 19:37:51;;;;;;;;;;;;;;;19.05;61.19;99524.83;108037;1254;65813;-87
2023/08/02 19:40:38;;;;;;;;;;;;;;;19.02;61.35;99527.41;107755;1254;123932;-86
2023/08/02 19:43:13;;;;;;;;;;;;;;;18.97;61.50;99517.25;107722;1257;60447;-88
2023/08/02 19:46:00;;;;;;;;;;;;;;;18.96;61.58;99522.77;107394;1253;60490;-86
2023/08/02 19:48:37;;;;;;;;;;;;;;;18.95;61.71;99529.23;107634;1253;74397;-85
2023/08/02 19:51:07;;;;;;;;;;;;;;;18.95;61.92;99525.30;107859;1254;65299;-84
2023/08/02 19:54:02;;;;;;;;;;;;;;;18.94;61.97;99521.40;107570;1254;123926;-84
2023/08/02 19:56:41;;;;;;;;;;;;;;;18.95;62.08;99525.48;107665;1253;60472;-86
2023/08/02 19:59:18;;;;;;;;;;;;;;;18.95;62.27;99536.30;107638;1257;123964;-85
2023/08/02 20:01:54;;;;;;;;;;;;;;;18.96;62.36;99536.83;107982;1253;73895;-91
2023/08/02 20:04:43;;;;;;;;;;;;;;;18.97;62.50;99538.02;107983;1253;124017;-88
2023/08/02 20:14:36;;;;;;;;;;;;;;;18.96;62.89;99506.44;107170;1262;61087;-88
2023/08/02 20:23:57;;;;;;;;;;;;;;;18.94;63.15;99492.08;106920;1262;124313;-89
2023/08/02 20:29:49;;;;;;;;;;;;;;;18.94;63.32;99497.94;107075;1261;123963;-86
2023/08/02 20:32:28;;;;;;;;;;;;;;;18.94;63.27;99496.87;107111;1262;73525;-86
2023/08/02 20:35:01;;;;;;;;;;;;;;;18.94;63.48;99491.55;106915;1261;124488;-87
2023/08/02 20:37:28;;;;;;;;;;;;;;;18.94;63.56;99483.01;107250;1261;73933;-85
2023/08/02 20:40:02;;;;;;;;;;;;;;;18.94;63.60;99470.20;107457;1254;125267;-87
2023/08/02 20:42:37;;;;;;;;;;;;;;;18.95;63.61;99475.16;107698;1254;60488;-87
2023/08/02 20:45:12;;;;;;;;;;;;;;;18.96;63.62;99470.70;107597;1254;74583;-86
2023/08/02 20:50:47;;;;;;;;;;;;;;;18.99;63.75;99466.67;107794;1254;72666;-86
2023/08/02 20:53:32;;;;;;;;;;;;;;;19.01;63.77;99468.59;107545;1256;125474;-86
2023/08/02 20:55:59;;;;;;;;;;;;;;;19.01;63.77;99470.35;107672;1254;61334;-87
2023/08/02 20:58:29;;;;;;;;;;;;;;;19.03;63.83;99474.20;107713;1253;124797;-86
2023/08/02 21:00:56;;;;;;;;;;;;;;;19.06;63.83;99474.48;107656;1254;65215;-86
2023/08/02 21:03:23;;;;;;;;;;;;;;;19.07;63.85;99473.73;107728;1254;71896;-86
2023/08/02 21:05:58;;;;;;;;;;;;;;;19.08;63.83;99473.52;107412;1253;123962;-85
2023/08/02 21:08:33;;;;;;;;;;;;;;;19.09;63.85;99469.42;107930;1258;60147;-86
2023/08/02 21:11:06;;;;;;;;;;;;;;;19.09;63.90;99469.61;107716;1253;123981;-87